createdAt,value
2024-05-09T00:00:22.499Z,10.46
2024-05-09T00:01:17.651Z,10.52
2024-05-09T00:02:17.659Z,10.57
2024-05-09T00:03:17.582Z,10.52
2024-05-09T00:04:17.558Z,10.62
2024-05-09T00:05:17.646Z,10.68
2024-05-09T00:06:17.542Z,10.68
2024-05-09T00:07:17.493Z,10.71
2024-05-09T00:08:17.525Z,10.90
2024-05-09T00:09:17.465Z,10.87
2024-05-09T00:10:25.355Z,10.93
2024-05-09T00:11:17.507Z,10.89
2024-05-09T00:12:17.606Z,10.93
2024-05-09T00:13:17.411Z,11.08
2024-05-09T00:14:17.439Z,11.07
2024-05-09T00:15:17.358Z,11.17
2024-05-09T00:16:17.338Z,11.12
2024-05-09T00:17:17.488Z,11.15
2024-05-09T00:18:17.517Z,11.20
2024-05-09T00:19:17.413Z,11.32
2024-05-09T00:20:23.983Z,11.40
2024-05-09T00:21:17.280Z,11.32
2024-05-09T00:22:17.249Z,11.41
2024-05-09T00:23:17.312Z,11.51
2024-05-09T00:24:17.217Z,11.46
2024-05-09T00:25:17.205Z,11.54
2024-05-09T00:26:17.233Z,11.62
2024-05-09T00:27:17.178Z,11.59
2024-05-09T00:28:27.329Z,11.56
2024-05-09T00:30:32.753Z,11.65
2024-05-09T00:31:24.154Z,11.61
2024-05-09T00:33:31.313Z,11.81
2024-05-09T00:34:31.127Z,11.79
2024-05-09T00:36:38.162Z,11.79
2024-05-09T00:37:38.326Z,11.79
2024-05-09T00:39:46.143Z,11.86
2024-05-09T00:40:46.145Z,11.90
2024-05-09T00:42:53.085Z,11.96
2024-05-09T00:43:53.048Z,11.97
2024-05-09T00:45:49.976Z,12.02
2024-05-09T00:46:49.975Z,12.05
2024-05-09T00:47:50.269Z,12.09
2024-05-09T00:48:49.966Z,12.06
2024-05-09T00:49:49.920Z,12.00
2024-05-09T00:50:49.968Z,12.14
2024-05-09T00:51:49.847Z,12.17
2024-05-09T00:52:49.914Z,12.10
2024-05-09T00:53:49.812Z,12.15
2024-05-09T00:54:49.792Z,12.17
2024-05-09T00:55:49.829Z,12.18
2024-05-09T00:56:49.755Z,12.18
2024-05-09T00:57:49.735Z,12.17
2024-05-09T00:58:49.794Z,12.22
2024-05-09T00:59:49.703Z,12.18
2024-05-09T01:00:49.706Z,12.21
2024-05-09T01:01:49.810Z,12.25
2024-05-09T01:02:49.757Z,12.27
2024-05-09T01:03:51.258Z,12.28
2024-05-09T01:04:49.827Z,12.25
2024-05-09T01:05:49.707Z,12.28
2024-05-09T01:06:49.609Z,12.28
2024-05-09T01:07:49.642Z,12.39
2024-05-09T01:08:49.580Z,12.39
2024-05-09T01:09:49.555Z,12.40
2024-05-09T01:10:49.810Z,12.40
2024-05-09T01:11:49.656Z,12.38
2024-05-09T01:12:49.517Z,12.27
2024-05-09T01:13:49.564Z,12.33
2024-05-09T01:14:49.484Z,12.40
2024-05-09T01:15:49.466Z,12.28
2024-05-09T01:16:49.502Z,12.28
2024-05-09T01:17:49.668Z,12.28
2024-05-09T01:18:49.504Z,12.35
2024-05-09T01:19:49.466Z,12.42
2024-05-09T01:20:49.433Z,12.40
2024-05-09T01:21:49.382Z,12.36
2024-05-09T01:22:49.435Z,12.36
2024-05-09T01:23:49.354Z,12.39
2024-05-09T01:24:49.332Z,12.46
2024-05-09T01:25:49.380Z,12.47
2024-05-09T01:26:49.312Z,12.50
2024-05-09T01:27:49.287Z,12.42
2024-05-09T01:28:49.327Z,12.45
2024-05-09T01:29:49.257Z,12.42
2024-05-09T01:30:49.247Z,12.42
2024-05-09T01:31:49.307Z,12.43
2024-05-09T01:32:49.444Z,12.45
2024-05-09T01:33:49.264Z,12.46
2024-05-09T01:34:49.229Z,12.38
2024-05-09T01:35:49.197Z,12.46
2024-05-09T01:36:49.157Z,12.39
2024-05-09T01:37:49.209Z,12.33
2024-05-09T01:38:49.142Z,12.38
2024-05-09T01:39:49.126Z,12.35
2024-05-09T01:40:49.145Z,12.27
2024-05-09T01:41:49.091Z,12.25
2024-05-09T01:42:49.068Z,12.25
2024-05-09T01:43:49.068Z,12.22
2024-05-09T01:44:49.047Z,12.17
2024-05-09T01:45:49.034Z,12.20
2024-05-09T01:46:49.058Z,12.15
2024-05-09T01:47:49.072Z,12.18
2024-05-09T01:48:49.053Z,12.07
2024-05-09T01:49:48.991Z,12.10
2024-05-09T01:50:49.031Z,12.07
2024-05-09T01:51:48.936Z,12.05
2024-05-09T01:52:48.984Z,12.07
2024-05-09T01:53:48.907Z,12.02
2024-05-09T01:54:48.891Z,12.05
2024-05-09T01:55:48.917Z,11.97
2024-05-09T01:56:48.889Z,11.95
2024-05-09T01:57:48.848Z,12.00
2024-05-09T01:58:48.906Z,11.83
2024-05-09T01:59:48.815Z,11.91
2024-05-09T02:00:48.875Z,11.88
2024-05-09T02:01:56.664Z,11.88
2024-05-09T02:02:48.846Z,11.88
2024-05-09T02:03:49.046Z,11.86
2024-05-09T02:04:48.842Z,11.86
2024-05-09T02:05:48.777Z,11.86
2024-05-09T02:06:48.712Z,11.90
2024-05-09T02:07:48.710Z,11.86
2024-05-09T02:08:48.683Z,11.97
2024-05-09T02:09:48.668Z,11.80
2024-05-09T02:10:49.182Z,11.87
2024-05-09T02:11:48.795Z,11.91
2024-05-09T02:12:48.641Z,11.90
2024-05-09T02:13:48.612Z,11.91
2024-05-09T02:14:48.591Z,11.87
2024-05-09T02:15:48.588Z,11.86
2024-05-09T02:16:48.634Z,11.91
2024-05-09T02:17:48.765Z,11.88
2024-05-09T02:18:48.615Z,11.88
2024-05-09T02:19:48.559Z,11.83
2024-05-09T02:20:48.535Z,11.88
2024-05-09T02:21:48.489Z,11.84
2024-05-09T02:22:48.519Z,11.77
2024-05-09T02:23:48.458Z,11.79
2024-05-09T02:24:48.442Z,11.69
2024-05-09T02:25:48.508Z,11.76
2024-05-09T02:26:48.412Z,11.63
2024-05-09T02:27:48.401Z,11.58
2024-05-09T02:28:48.444Z,11.54
2024-05-09T02:29:48.371Z,11.48
2024-05-09T02:30:48.355Z,11.38
2024-05-09T02:31:48.557Z,11.41
2024-05-09T02:32:48.485Z,11.30
2024-05-09T02:33:48.651Z,11.29
2024-05-09T02:34:48.482Z,11.20
2024-05-09T02:35:48.298Z,11.15
2024-05-09T02:36:48.279Z,11.11
2024-05-09T02:37:48.289Z,11.03
2024-05-09T02:38:48.232Z,11.03
2024-05-09T02:39:48.221Z,11.01
2024-05-09T02:40:48.265Z,10.85
2024-05-09T02:41:48.235Z,10.87
2024-05-09T02:42:48.174Z,10.89
2024-05-09T02:43:48.202Z,10.83
2024-05-09T02:44:48.138Z,10.68
2024-05-09T02:45:48.121Z,10.62
2024-05-09T02:46:48.154Z,10.54
2024-05-09T02:47:48.313Z,10.56
2024-05-09T02:48:48.182Z,10.56
2024-05-09T02:49:48.105Z,10.46
2024-05-09T02:50:48.099Z,10.31
2024-05-09T02:51:48.035Z,10.30
2024-05-09T02:52:48.046Z,10.33
2024-05-09T02:53:48.068Z,10.26
2024-05-09T02:54:48.021Z,10.26
2024-05-09T02:55:48.003Z,10.18
2024-05-09T02:56:47.951Z,10.23
2024-05-09T02:57:47.950Z,10.06
2024-05-09T02:58:47.958Z,10.02
2024-05-09T02:59:47.909Z,10.04
2024-05-09T03:00:47.931Z,9.94
2024-05-09T03:01:47.978Z,9.90
2024-05-09T03:02:47.969Z,9.83
2024-05-09T03:03:48.003Z,9.88
2024-05-09T03:04:47.880Z,9.77
2024-05-09T03:05:47.978Z,9.75
2024-05-09T03:06:47.803Z,9.70
2024-05-09T03:07:47.817Z,9.70
2024-05-09T03:08:47.785Z,9.65
2024-05-09T03:09:47.771Z,9.61
2024-05-09T03:10:47.810Z,9.54
2024-05-09T03:11:47.877Z,9.51
2024-05-09T03:12:47.706Z,9.54
2024-05-09T03:13:47.771Z,9.52
2024-05-09T03:14:47.677Z,9.43
2024-05-09T03:15:47.653Z,9.47
2024-05-09T03:16:47.687Z,9.32
2024-05-09T03:17:47.794Z,9.33
2024-05-09T03:18:47.671Z,9.29
2024-05-09T03:19:47.613Z,9.24
2024-05-09T03:20:47.602Z,9.26
2024-05-09T03:21:47.559Z,9.25
2024-05-09T03:22:47.579Z,9.25
2024-05-09T03:23:47.606Z,9.14
2024-05-09T03:24:47.511Z,9.06
2024-05-09T03:25:47.546Z,9.08
2024-05-09T03:26:47.474Z,8.98
2024-05-09T03:27:47.460Z,8.91
2024-05-09T03:28:47.461Z,8.93
2024-05-09T03:29:47.441Z,8.96
2024-05-09T03:30:47.459Z,8.95
2024-05-09T03:31:47.493Z,8.87
2024-05-09T03:32:47.628Z,8.85
2024-05-09T03:33:47.580Z,8.90
2024-05-09T03:34:47.383Z,8.80
2024-05-09T03:35:47.604Z,8.70
2024-05-09T03:36:47.314Z,8.72
2024-05-09T03:37:47.350Z,8.70
2024-05-09T03:38:47.284Z,8.67
2024-05-09T03:39:47.269Z,8.60
2024-05-09T03:40:47.400Z,8.66
2024-05-09T03:41:47.240Z,8.72
2024-05-09T03:42:47.238Z,8.52
2024-05-09T03:43:47.232Z,8.60
2024-05-09T03:44:47.195Z,8.49
2024-05-09T03:45:47.173Z,8.55
2024-05-09T03:46:47.207Z,8.52
2024-05-09T03:47:47.398Z,8.49
2024-05-09T03:48:47.234Z,8.59
2024-05-09T03:49:47.160Z,8.54
2024-05-09T03:50:47.289Z,8.54
2024-05-09T03:51:47.064Z,8.51
2024-05-09T03:55:50.025Z,8.51
2024-05-09T03:56:49.902Z,8.51
2024-05-09T03:59:26.636Z,8.49
2024-05-09T04:00:34.872Z,8.57
2024-05-09T04:23:56.783Z,8.55
2024-05-09T04:24:56.682Z,8.60
2024-05-09T04:25:56.636Z,8.67
2024-05-09T04:26:56.576Z,8.69
2024-05-09T04:27:56.570Z,8.57
2024-05-09T04:28:56.508Z,8.69
2024-05-09T04:29:56.470Z,8.67
2024-05-09T04:30:56.456Z,8.63
2024-05-09T04:31:56.507Z,8.60
2024-05-09T04:32:56.467Z,8.59
2024-05-09T04:33:56.566Z,8.63
2024-05-09T04:34:56.475Z,8.59
2024-05-09T04:35:56.367Z,8.72
2024-05-09T04:36:56.356Z,8.72
2024-05-09T04:37:56.400Z,8.75
2024-05-09T04:38:56.353Z,8.72
2024-05-09T04:39:56.298Z,8.78
2024-05-09T04:40:56.347Z,8.75
2024-05-09T04:41:56.277Z,8.81
2024-05-09T04:42:56.255Z,8.85
2024-05-09T04:43:56.278Z,8.87
2024-05-09T04:44:58.632Z,8.95
2024-05-09T04:45:56.202Z,8.91
2024-05-09T04:46:56.354Z,8.98
2024-05-09T04:58:41.654Z,9.40
2024-05-09T04:59:41.510Z,9.39
2024-05-09T05:00:41.948Z,9.51
2024-05-09T05:01:41.543Z,9.55
2024-05-09T05:02:41.577Z,9.58
2024-05-09T05:03:42.685Z,9.61
2024-05-09T05:04:41.449Z,9.72
2024-05-09T05:05:41.809Z,9.72
2024-05-09T05:06:41.231Z,9.76
2024-05-09T05:07:41.221Z,9.93
2024-05-09T05:08:41.233Z,10.06
2024-05-09T05:09:41.240Z,10.15
2024-05-09T05:10:41.186Z,10.18
2024-05-09T05:11:41.272Z,10.34
2024-05-09T05:12:41.143Z,10.31
2024-05-09T05:13:41.752Z,10.59
2024-05-09T05:14:41.149Z,10.52
2024-05-09T05:15:41.088Z,10.67
2024-05-09T05:16:41.069Z,10.85
2024-05-09T05:17:41.259Z,10.95
2024-05-09T05:18:41.197Z,11.01
2024-05-09T05:19:41.135Z,11.00
2024-05-09T05:20:41.047Z,11.20
2024-05-09T05:21:40.989Z,11.32
2024-05-09T05:22:40.982Z,11.37
2024-05-09T05:23:41.127Z,11.50
2024-05-09T05:24:40.946Z,11.53
2024-05-09T05:25:40.924Z,11.58
2024-05-09T05:26:41.021Z,11.68
2024-05-09T05:27:40.964Z,11.77
2024-05-09T05:28:40.886Z,11.87
2024-05-09T05:29:40.947Z,11.99
2024-05-09T05:30:40.862Z,12.06
2024-05-09T05:31:40.856Z,12.15
2024-05-09T05:32:41.002Z,12.20
2024-05-09T05:33:40.899Z,12.39
2024-05-09T05:34:40.787Z,12.38
2024-05-09T05:35:40.824Z,12.50
2024-05-09T05:36:40.961Z,12.55
2024-05-09T05:37:41.193Z,12.76
2024-05-09T05:38:40.787Z,12.72
2024-05-09T05:39:40.713Z,12.85
2024-05-09T05:40:41.227Z,12.91
2024-05-09T05:41:40.744Z,13.00
2024-05-09T05:42:40.760Z,13.05
2024-05-09T05:43:40.656Z,13.11
2024-05-09T05:44:40.672Z,13.19
2024-05-09T05:45:40.624Z,13.30
2024-05-09T05:46:40.623Z,13.27
2024-05-09T05:47:41.003Z,13.49
2024-05-09T05:48:40.645Z,13.45
2024-05-09T05:49:40.712Z,13.59
2024-05-09T05:50:40.604Z,13.70
2024-05-09T05:51:40.534Z,13.78
2024-05-09T05:52:40.532Z,13.80
2024-05-09T05:53:40.571Z,13.92
2024-05-09T05:54:40.491Z,14.04
2024-05-09T05:55:40.532Z,13.97
2024-05-09T05:56:40.522Z,14.08
2024-05-09T05:57:40.458Z,14.14
2024-05-09T05:58:40.436Z,14.28
2024-05-09T05:59:40.469Z,14.40
2024-05-09T06:00:41.465Z,14.48
2024-05-09T06:01:40.395Z,14.65
2024-05-09T06:02:40.657Z,14.63
2024-05-09T06:03:40.582Z,14.69
2024-05-09T06:04:40.428Z,14.84
2024-05-09T06:05:41.056Z,14.84
2024-05-09T06:06:40.322Z,14.85
2024-05-09T06:07:40.314Z,14.97
2024-05-09T06:08:40.372Z,15.11
2024-05-09T06:09:40.289Z,15.17
2024-05-09T06:10:41.416Z,15.19
2024-05-09T06:11:40.428Z,15.33
2024-05-09T06:12:40.239Z,15.36
2024-05-09T06:13:40.230Z,15.51
2024-05-09T06:14:40.371Z,15.58
2024-05-09T06:15:40.304Z,15.76
2024-05-09T06:16:40.192Z,15.83
2024-05-09T06:17:40.283Z,15.92
2024-05-09T06:18:40.347Z,15.83
2024-05-09T06:19:40.263Z,15.95
2024-05-09T06:20:40.579Z,16.01
2024-05-09T06:21:40.166Z,16.15
2024-05-09T06:22:40.109Z,16.28
2024-05-09T06:23:40.184Z,16.31
2024-05-09T06:24:40.080Z,16.49
2024-05-09T06:25:40.073Z,16.51
2024-05-09T06:26:40.064Z,16.68
2024-05-09T06:27:40.045Z,16.72
2024-05-09T06:28:40.037Z,16.74
2024-05-09T06:29:40.104Z,16.90
2024-05-09T06:30:41.841Z,16.99
2024-05-09T06:31:39.996Z,16.96
2024-05-09T06:32:40.150Z,17.20
2024-05-09T06:33:40.070Z,17.23
2024-05-09T06:34:40.090Z,17.35
2024-05-09T06:35:40.527Z,17.44
2024-05-09T06:36:39.931Z,17.54
2024-05-09T06:37:39.921Z,17.65
2024-05-09T06:38:40.037Z,17.68
2024-05-09T06:39:39.898Z,17.73
2024-05-09T06:40:41.668Z,18.00
2024-05-09T06:41:39.880Z,17.86
2024-05-09T06:42:39.864Z,17.98
2024-05-09T06:43:39.853Z,18.09
2024-05-09T06:44:39.895Z,18.20
2024-05-09T06:45:40.216Z,18.26
2024-05-09T06:46:39.852Z,18.33
2024-05-09T06:47:39.914Z,18.48
2024-05-09T06:48:40.114Z,18.60
2024-05-09T06:49:39.805Z,18.59
2024-05-09T06:50:40.445Z,18.62
2024-05-09T06:51:39.766Z,18.70
2024-05-09T06:52:39.739Z,18.86
2024-05-09T06:53:39.909Z,18.95
2024-05-09T06:54:39.719Z,18.95
2024-05-09T06:55:39.744Z,19.18
2024-05-09T06:56:39.769Z,19.16
2024-05-09T06:57:42.505Z,19.26
2024-05-09T06:58:39.675Z,19.24
2024-05-09T06:59:39.715Z,19.39
2024-05-09T07:00:41.572Z,19.46
2024-05-09T07:01:39.745Z,19.60
2024-05-09T07:02:39.863Z,19.67
2024-05-09T07:03:39.732Z,19.79
2024-05-09T07:04:39.673Z,19.79
2024-05-09T07:05:39.750Z,20.06
2024-05-09T07:06:39.590Z,20.14
2024-05-09T07:07:39.584Z,20.28
2024-05-09T07:08:39.702Z,20.41
2024-05-09T07:09:39.563Z,20.56
2024-05-09T07:10:39.549Z,20.81
2024-05-09T07:11:39.628Z,21.05
2024-05-09T07:12:39.560Z,22.38
2024-05-09T07:13:39.530Z,25.35
2024-05-09T07:14:39.636Z,29.02
2024-05-09T07:15:39.512Z,31.91
2024-05-09T07:23:55.009Z,42.03
2024-05-09T07:24:54.952Z,42.49
2024-05-09T07:25:54.932Z,43.05
2024-05-09T07:26:54.929Z,43.59
2024-05-09T07:27:54.954Z,44.11
2024-05-09T07:28:54.934Z,44.55
2024-05-09T07:29:54.872Z,45.11
2024-05-09T07:30:54.912Z,45.54
2024-05-09T07:31:54.915Z,45.81
2024-05-09T07:32:55.064Z,46.27
2024-05-09T07:33:54.938Z,46.56
2024-05-09T07:34:54.917Z,46.90
2024-05-09T07:35:54.853Z,47.18
2024-05-09T07:36:54.858Z,47.63
2024-05-09T07:37:54.867Z,47.97
2024-05-09T07:38:54.831Z,48.25
2024-05-09T07:39:54.833Z,48.50
2024-05-09T07:40:54.861Z,48.85
2024-05-09T07:41:54.819Z,48.85
2024-05-09T07:42:54.812Z,49.00
2024-05-09T07:43:54.824Z,49.18
2024-05-09T07:50:34.317Z,49.62
2024-05-09T07:52:23.281Z,49.96
2024-05-09T07:53:33.130Z,50.22
2024-05-09T07:53:41.112Z,50.35
2024-05-09T07:54:33.845Z,50.45
2024-05-09T07:55:33.890Z,50.24
2024-05-09T07:56:33.941Z,50.18
2024-05-09T07:57:33.782Z,50.37
2024-05-09T07:58:33.762Z,50.57
2024-05-09T07:59:37.637Z,50.79
2024-05-09T08:00:33.841Z,50.95
2024-05-09T08:01:34.006Z,50.95
2024-05-09T08:02:33.929Z,51.06
2024-05-09T08:03:34.139Z,51.26
2024-05-09T08:04:33.850Z,51.48
2024-05-09T08:05:33.866Z,51.58
2024-05-09T08:06:33.787Z,51.71
2024-05-09T08:07:33.726Z,52.02
2024-05-09T08:08:33.724Z,52.07
2024-05-09T08:09:35.586Z,52.12
2024-05-09T08:10:33.793Z,52.04
2024-05-09T08:11:33.757Z,52.31
2024-05-09T08:12:33.750Z,52.44
2024-05-09T08:13:33.722Z,52.60
2024-05-09T08:14:33.713Z,52.72
2024-05-09T08:15:33.744Z,52.97
2024-05-09T08:16:33.799Z,53.06
2024-05-09T08:17:33.804Z,53.24
2024-05-09T08:18:33.994Z,53.36
2024-05-09T08:19:33.767Z,53.49
2024-05-09T08:20:35.360Z,53.53
2024-05-09T08:21:33.793Z,53.71
2024-05-09T08:22:33.707Z,53.67
2024-05-09T08:23:33.760Z,53.71
2024-05-09T08:24:33.754Z,53.74
2024-05-09T08:25:33.717Z,53.72
2024-05-09T08:26:33.711Z,53.93
2024-05-09T08:27:33.770Z,54.09
2024-05-09T08:28:33.710Z,54.19
2024-05-09T08:29:33.704Z,54.18
2024-05-09T08:30:37.183Z,54.36
2024-05-09T08:31:33.830Z,54.57
2024-05-09T08:32:33.746Z,54.65
2024-05-09T08:33:33.987Z,54.65
2024-05-09T08:34:33.786Z,54.43
2024-05-09T08:35:33.843Z,54.37
2024-05-09T08:36:33.725Z,54.24
2024-05-09T08:37:38.692Z,54.32
2024-05-09T08:38:33.763Z,54.36
2024-05-09T08:39:33.732Z,54.34
2024-05-09T08:40:36.190Z,54.61
2024-05-09T08:41:33.733Z,54.75
2024-05-09T08:42:33.756Z,54.83
2024-05-09T08:43:33.742Z,54.82
2024-05-09T08:44:33.745Z,54.92
2024-05-09T08:45:33.763Z,54.98
2024-05-09T08:46:33.834Z,55.02
2024-05-09T08:47:33.760Z,55.14
2024-05-09T08:48:33.821Z,55.21
2024-05-09T08:49:33.761Z,55.10
2024-05-09T08:50:38.556Z,55.14
2024-05-09T08:51:33.751Z,55.34
2024-05-09T08:52:33.745Z,55.31
2024-05-09T08:53:33.721Z,55.38
2024-05-09T08:54:33.770Z,54.82
2024-05-09T08:55:33.850Z,54.96
2024-05-09T09:03:45.453Z,56.33
2024-05-09T09:04:45.374Z,56.57
2024-05-09T09:05:45.354Z,56.64
2024-05-09T09:06:45.364Z,56.22
2024-05-09T09:07:45.314Z,56.14
2024-05-09T09:08:45.288Z,56.30
2024-05-09T09:09:45.315Z,56.45
2024-05-09T09:10:45.515Z,56.25
2024-05-09T09:11:45.340Z,56.10
2024-05-09T09:12:45.331Z,55.22
2024-05-09T09:13:45.297Z,54.22
2024-05-09T09:14:45.348Z,54.72
2024-05-09T09:15:45.320Z,55.07
2024-05-09T09:16:45.297Z,55.33
2024-05-09T09:17:45.386Z,55.91
2024-05-09T09:18:45.402Z,55.31
2024-05-09T09:19:45.325Z,54.17
2024-05-09T09:20:45.431Z,55.24
2024-05-09T09:21:45.334Z,55.83
2024-05-09T09:22:45.311Z,56.22
2024-05-09T09:23:45.311Z,56.41
2024-05-09T09:24:45.370Z,54.36
2024-05-09T09:25:45.336Z,50.79
2024-05-09T09:26:45.324Z,47.43
2024-05-09T09:27:45.359Z,45.37
2024-05-09T09:28:45.328Z,43.09
2024-05-09T09:29:45.344Z,41.41
2024-05-09T09:30:45.362Z,40.50
2024-05-09T09:31:45.324Z,39.41
2024-05-09T09:32:45.404Z,40.60
2024-05-09T09:33:45.531Z,42.64
2024-05-09T09:34:45.509Z,43.75
2024-05-09T09:35:45.333Z,41.44
2024-05-09T09:36:45.378Z,39.60
2024-05-09T09:37:45.344Z,38.25
2024-05-09T09:38:45.323Z,36.97
2024-05-09T09:39:49.056Z,35.94
2024-05-09T09:40:49.143Z,35.08
2024-05-09T09:41:45.324Z,34.34
2024-05-09T09:42:45.353Z,33.56
2024-05-09T09:43:45.320Z,32.99
2024-05-09T09:44:51.370Z,32.45
2024-05-09T09:45:45.332Z,31.90
2024-05-09T09:46:45.307Z,31.49
2024-05-09T09:47:45.425Z,31.11
2024-05-09T09:48:45.510Z,30.93
2024-05-09T09:49:45.318Z,30.97
2024-05-09T09:50:45.329Z,34.93
2024-05-09T09:51:45.329Z,38.21
2024-05-09T09:52:45.494Z,40.60
2024-05-09T09:53:45.294Z,42.70
2024-05-09T09:54:45.319Z,44.45
2024-05-09T09:55:45.298Z,45.75
2024-05-09T09:56:45.279Z,46.64
2024-05-09T09:57:45.350Z,47.53
2024-05-09T09:58:45.271Z,47.09
2024-05-09T09:59:45.278Z,45.98
2024-05-09T10:00:45.618Z,46.46
2024-05-09T10:01:45.349Z,47.13
2024-05-09T10:02:45.326Z,47.09
2024-05-09T10:03:45.432Z,48.50
2024-05-09T10:04:45.378Z,49.59
2024-05-09T10:05:47.218Z,50.58
2024-05-09T10:06:45.272Z,51.32
2024-05-09T10:07:45.279Z,51.70
2024-05-09T10:08:45.266Z,52.63
2024-05-09T10:09:45.334Z,53.64
2024-05-09T10:10:45.428Z,54.57
2024-05-09T10:11:49.330Z,55.48
2024-05-09T10:12:45.314Z,56.46
2024-05-09T10:13:45.270Z,57.03
2024-05-09T10:14:45.282Z,57.30
2024-05-09T10:15:45.355Z,57.58
2024-05-09T10:16:45.276Z,57.77
2024-05-09T10:17:45.369Z,57.93
2024-05-09T10:18:45.482Z,57.84
2024-05-09T10:19:45.388Z,56.30
2024-05-09T10:20:45.331Z,56.29
2024-05-09T10:21:45.354Z,56.77
2024-05-09T10:22:45.297Z,56.95
2024-05-09T10:23:45.303Z,57.30
2024-05-09T10:24:45.352Z,57.38
2024-05-09T10:25:45.299Z,57.61
2024-05-09T10:26:45.312Z,57.80
2024-05-09T10:27:45.659Z,58.20
2024-05-09T10:37:57.733Z,57.74
2024-05-09T10:38:56.972Z,57.69
2024-05-09T10:39:57.011Z,57.60
2024-05-09T10:40:57.045Z,57.48
2024-05-09T10:41:56.948Z,57.57
2024-05-09T10:42:57.112Z,57.76
2024-05-09T10:43:56.951Z,57.74
2024-05-09T10:44:56.964Z,57.62
2024-05-09T10:45:57.096Z,57.46
2024-05-09T10:46:57.058Z,57.28
2024-05-09T10:47:57.075Z,57.21
2024-05-09T10:48:57.615Z,57.02
2024-05-09T10:49:57.145Z,56.92
2024-05-09T10:50:56.996Z,57.15
2024-05-09T10:51:57.047Z,57.41
2024-05-09T10:52:57.005Z,57.67
2024-05-09T10:53:57.024Z,57.84
2024-05-09T10:54:57.109Z,57.84
2024-05-09T10:55:57.032Z,57.79
2024-05-09T10:56:57.028Z,57.69
2024-05-09T10:57:57.053Z,57.41
2024-05-09T10:58:57.041Z,57.22
2024-05-09T10:59:57.047Z,56.76
2024-05-09T11:00:57.097Z,56.57
2024-05-09T11:01:57.126Z,56.72
2024-05-09T11:02:57.092Z,57.11
2024-05-09T11:03:57.158Z,57.31
2024-05-09T11:04:57.155Z,57.50
2024-05-09T11:05:57.102Z,57.76
2024-05-09T11:06:57.173Z,58.14
2024-05-09T11:07:57.092Z,58.31
2024-05-09T11:08:57.098Z,58.50
2024-05-09T11:09:57.128Z,58.66
2024-05-09T11:10:57.151Z,58.69
2024-05-09T11:11:57.168Z,58.59
2024-05-09T11:12:57.187Z,58.53
2024-05-09T11:13:57.129Z,58.50
2024-05-09T11:14:57.155Z,57.96
2024-05-09T11:15:57.227Z,58.02
2024-05-09T11:16:57.142Z,58.34
2024-05-09T11:17:57.300Z,58.50
2024-05-09T11:18:57.666Z,58.74
2024-05-09T11:19:57.213Z,58.66
2024-05-09T11:20:57.167Z,58.59
2024-05-09T11:21:57.192Z,58.30
2024-05-09T11:22:57.179Z,58.23
2024-05-09T11:23:57.236Z,58.24
2024-05-09T11:24:57.222Z,58.24
2024-05-09T11:25:57.198Z,58.24
2024-05-09T11:26:57.226Z,58.11
2024-05-09T11:27:57.260Z,57.91
2024-05-09T11:28:57.222Z,57.74
2024-05-09T11:29:57.224Z,57.57
2024-05-09T11:30:57.261Z,57.47
2024-05-09T11:31:57.299Z,56.19
2024-05-09T11:32:57.334Z,55.34
2024-05-09T11:33:57.448Z,55.43
2024-05-09T11:34:57.260Z,54.03
2024-05-09T11:35:57.278Z,51.96
2024-05-09T11:36:57.293Z,50.15
2024-05-09T11:37:57.269Z,48.29
2024-05-09T11:38:57.277Z,46.58
2024-05-09T11:39:57.316Z,45.66
2024-05-09T11:40:57.283Z,46.83
2024-05-09T11:41:57.292Z,47.77
2024-05-09T11:42:57.385Z,48.49
2024-05-09T11:43:57.300Z,49.16
2024-05-09T11:44:57.307Z,49.68
2024-05-09T11:45:57.577Z,50.17
2024-05-09T11:46:57.311Z,50.53
2024-05-09T11:47:57.532Z,50.75
2024-05-09T11:48:57.369Z,50.99
2024-05-09T11:49:57.429Z,51.08
2024-05-09T11:50:57.318Z,51.10
2024-05-09T11:51:57.383Z,51.18
2024-05-09T11:52:57.327Z,51.18
2024-05-09T12:14:54.370Z,47.21
2024-05-09T12:15:53.135Z,47.23
2024-05-09T12:16:53.315Z,46.14
2024-05-09T12:17:53.726Z,44.72
2024-05-09T12:18:53.605Z,43.92
2024-05-09T12:19:53.034Z,43.51
2024-05-09T12:20:53.036Z,42.75
2024-05-09T12:21:53.102Z,42.76
2024-05-09T12:22:53.033Z,41.69
2024-05-09T12:23:53.051Z,40.86
2024-05-09T12:24:53.124Z,39.81
2024-05-09T12:25:53.047Z,38.92
2024-05-09T12:26:53.047Z,38.12
2024-05-09T12:27:53.152Z,37.33
2024-05-09T12:28:53.040Z,38.18
2024-05-09T12:29:53.050Z,39.01
2024-05-09T12:30:53.165Z,38.66
2024-05-09T12:31:53.169Z,38.39
2024-05-09T12:32:53.376Z,38.08
2024-05-09T12:33:53.102Z,38.73
2024-05-09T12:34:53.055Z,39.08
2024-05-09T12:35:53.036Z,38.29
2024-05-09T12:36:53.097Z,37.75
2024-05-09T12:37:53.034Z,37.15
2024-05-09T12:38:53.041Z,36.36
2024-05-09T12:39:53.081Z,36.32
2024-05-09T12:40:53.205Z,36.81
2024-05-09T12:41:53.035Z,37.57
2024-05-09T12:42:53.060Z,38.14
2024-05-09T12:43:53.043Z,38.56
2024-05-09T12:44:53.030Z,39.01
2024-05-09T12:45:53.061Z,39.40
2024-05-09T12:46:53.030Z,39.80
2024-05-09T12:47:53.122Z,40.09
2024-05-09T12:48:53.237Z,40.44
2024-05-09T12:49:53.060Z,40.63
2024-05-09T12:50:53.195Z,40.98
2024-05-09T12:51:53.046Z,41.30
2024-05-09T12:52:53.022Z,41.38
2024-05-09T12:53:53.021Z,41.44
2024-05-09T12:54:53.102Z,41.42
2024-05-09T12:55:57.038Z,41.38
2024-05-09T13:02:07.159Z,41.03
2024-05-09T13:19:00.646Z,36.40
2024-05-09T13:20:00.721Z,35.86
2024-05-09T13:21:00.659Z,35.40
2024-05-09T13:22:00.520Z,35.05
2024-05-09T13:23:00.505Z,34.75
2024-05-09T13:36:30.400Z,33.01
2024-05-09T13:37:31.011Z,32.89
2024-05-09T13:38:30.496Z,32.80
2024-05-09T13:39:31.137Z,32.68
2024-05-09T13:40:34.304Z,32.52
2024-05-09T13:41:30.173Z,32.47
2024-05-09T13:42:30.162Z,32.30
2024-05-09T13:43:31.078Z,32.08
2024-05-09T13:44:30.232Z,31.82
2024-05-09T13:45:30.607Z,31.60
2024-05-09T13:46:30.468Z,31.37
2024-05-09T13:47:30.047Z,31.24
2024-05-09T13:48:30.125Z,31.11
2024-05-09T13:49:30.249Z,31.02
2024-05-09T13:50:34.483Z,30.72
2024-05-09T13:51:30.009Z,30.66
2024-05-09T13:52:29.958Z,30.62
2024-05-09T13:53:29.967Z,30.43
2024-05-09T13:54:30.047Z,30.36
2024-05-09T13:55:29.972Z,30.27
2024-05-09T13:56:29.954Z,30.20
2024-05-09T13:57:29.955Z,30.14
2024-05-09T13:58:29.975Z,30.02
2024-05-09T13:59:29.934Z,29.91
2024-05-09T14:00:42.674Z,29.69
2024-05-09T14:01:29.983Z,29.62
2024-05-09T14:02:30.063Z,29.44
2024-05-09T14:03:30.154Z,29.29
2024-05-09T14:04:30.099Z,29.26
2024-05-09T14:05:30.123Z,29.16
2024-05-09T14:06:29.951Z,29.13
2024-05-09T14:07:29.876Z,29.10
2024-05-09T14:08:29.869Z,28.98
2024-05-09T14:09:29.902Z,29.01
2024-05-09T14:10:31.804Z,28.93
2024-05-09T14:11:29.888Z,28.90
2024-05-09T14:12:29.888Z,28.83
2024-05-09T14:13:29.861Z,28.86
2024-05-09T14:14:30.007Z,28.86
2024-05-09T14:15:29.936Z,28.90
2024-05-09T14:46:55.375Z,28.38
2024-05-09T14:47:55.517Z,28.30
2024-05-09T15:31:34.668Z,26.56
2024-05-09T15:32:35.531Z,26.50
2024-05-09T15:33:34.982Z,26.50
2024-05-09T15:34:34.945Z,26.45
2024-05-09T15:35:34.768Z,26.40
2024-05-09T15:36:34.670Z,26.34
2024-05-09T15:37:34.456Z,26.25
2024-05-09T15:38:34.744Z,26.16
2024-05-09T15:39:34.396Z,26.20
2024-05-09T15:40:39.184Z,26.15
2024-05-09T15:41:34.336Z,26.10
2024-05-09T15:42:34.358Z,25.96
2024-05-09T15:43:34.466Z,25.85
2024-05-09T15:44:34.319Z,25.87
2024-05-09T15:45:34.767Z,25.81
2024-05-09T15:46:34.434Z,25.66
2024-05-09T15:47:34.420Z,25.63
2024-05-09T15:48:34.522Z,25.59
2024-05-09T15:49:34.663Z,25.59
2024-05-09T15:50:38.860Z,25.48
2024-05-09T15:51:34.267Z,25.40
2024-05-09T15:52:34.255Z,25.41
2024-05-09T15:53:34.250Z,25.33
2024-05-09T15:54:34.264Z,25.20
2024-05-09T15:55:34.881Z,25.13
2024-05-09T15:56:34.240Z,25.01
2024-05-09T15:57:34.250Z,25.00
2024-05-09T15:58:34.222Z,24.86
2024-05-09T15:59:34.194Z,24.83
2024-05-09T16:00:38.773Z,24.77
2024-05-09T16:01:34.357Z,24.74
2024-05-09T16:02:34.328Z,24.69
2024-05-09T16:03:34.374Z,24.51
2024-05-09T16:04:34.348Z,24.58
2024-05-09T16:05:34.398Z,24.48
2024-05-09T16:06:34.278Z,24.51
2024-05-09T16:07:34.167Z,24.39
2024-05-09T16:08:34.123Z,24.35
2024-05-09T16:09:34.182Z,24.35
2024-05-09T16:10:35.125Z,24.36
2024-05-09T16:11:34.125Z,24.33
2024-05-09T16:12:34.137Z,24.26
2024-05-09T16:13:34.078Z,24.28
2024-05-09T16:14:34.102Z,24.30
2024-05-09T16:15:34.092Z,24.30
2024-05-09T16:16:34.108Z,24.28